createdAt,value
2022-11-14T00:02:10.986Z,101842.11
2022-11-14T00:05:23.703Z,101839.48
2022-11-14T00:08:35.069Z,101838.77
2022-11-14T00:11:46.679Z,101838.62
2022-11-14T00:14:58.224Z,101840.44
2022-11-14T00:18:10.063Z,101834.22
2022-11-14T00:21:21.045Z,101839.34
2022-11-14T00:24:32.671Z,101828.71
2022-11-14T00:27:43.780Z,101839.72
2022-11-14T00:30:55.071Z,101836.13
2022-11-14T00:34:06.349Z,101839.47
2022-11-14T00:37:17.000Z,101833.36
2022-11-14T00:40:27.703Z,101833.97
2022-11-14T00:43:39.056Z,101826.42
2022-11-14T00:46:50.219Z,101826.66
2022-11-14T00:50:00.833Z,101821.53
2022-11-14T00:53:12.466Z,101821.64
2022-11-14T00:56:23.807Z,101820.67
2022-11-14T00:59:35.313Z,101823.06
2022-11-14T01:02:47.385Z,101820.19
2022-11-14T01:05:58.749Z,101816.61
2022-11-14T01:09:09.992Z,101811.34
2022-11-14T01:12:21.071Z,101819.00
2022-11-14T01:15:32.305Z,101813.48
2022-11-14T01:18:44.506Z,101810.03
2022-11-14T01:21:55.200Z,101819.47
2022-11-14T01:25:07.191Z,101806.30
2022-11-14T01:28:20.927Z,101812.42
2022-11-14T01:31:32.695Z,101799.25
2022-11-14T01:34:43.688Z,101801.03
2022-11-14T01:37:54.577Z,101804.62
2022-11-14T01:41:06.469Z,101795.91
2022-11-14T01:44:39.668Z,101801.28
2022-11-14T01:47:50.950Z,101790.88
2022-11-14T01:51:07.144Z,101792.09
2022-11-14T01:54:22.408Z,101787.89
2022-11-14T01:57:35.856Z,101799.52
2022-11-14T02:00:47.594Z,101795.31
2022-11-14T02:04:03.397Z,101794.59
2022-11-14T02:07:17.559Z,101786.12
2022-11-14T02:10:28.561Z,101789.81
2022-11-14T02:13:39.682Z,101787.42
2022-11-14T02:17:14.362Z,101787.80
2022-11-14T02:20:28.881Z,101793.30
2022-11-14T02:23:40.517Z,101791.87
2022-11-14T02:26:51.780Z,101792.92
2022-11-14T02:30:12.294Z,101789.81
2022-11-14T02:33:23.023Z,101790.91
2022-11-14T02:36:34.340Z,101794.83
2022-11-14T02:39:45.164Z,101796.88
2022-11-14T02:42:56.414Z,101802.24
2022-11-14T02:46:08.079Z,101804.05
2022-11-14T02:49:19.064Z,101797.94
2022-11-14T02:52:30.724Z,101801.29
2022-11-14T02:55:42.149Z,101803.81
2022-11-14T02:58:53.430Z,101801.91
2022-11-14T03:02:04.684Z,101808.70
2022-11-14T03:05:16.390Z,101812.05
2022-11-14T03:08:27.467Z,101813.63
2022-11-14T03:11:40.105Z,101814.59
2022-11-14T03:14:51.480Z,101823.20
2022-11-14T03:18:04.251Z,101821.28
2022-11-14T03:21:17.079Z,101821.05
2022-11-14T03:24:27.886Z,101828.81
2022-11-14T03:27:38.896Z,101827.85
2022-11-14T03:30:50.132Z,101820.81
2022-11-14T03:34:01.166Z,101825.12
2022-11-14T03:37:12.350Z,101822.48
2022-11-14T03:40:23.409Z,101824.98
2022-11-14T03:43:36.315Z,101822.25
2022-11-14T03:46:47.877Z,101820.58
2022-11-14T03:49:58.832Z,101819.72
2022-11-14T03:53:09.816Z,101816.98
2022-11-14T03:56:20.612Z,101815.07
2022-11-14T03:59:31.735Z,101812.30
2022-11-14T04:02:43.176Z,101809.44
2022-11-14T04:05:54.743Z,101817.23
2022-11-14T04:09:05.807Z,101816.98
2022-11-14T04:12:16.599Z,101814.22
2022-11-14T04:15:27.332Z,101827.27
2022-11-14T04:18:38.767Z,101821.77
2022-11-14T04:21:49.908Z,101829.53
2022-11-14T04:25:00.936Z,101827.52
2022-11-14T04:28:11.819Z,101827.38
2022-11-14T04:31:25.290Z,101829.05
2022-11-14T04:34:36.646Z,101836.47
2022-11-14T04:37:47.982Z,101833.73
2022-11-14T04:40:59.019Z,101839.57
2022-11-14T04:44:10.259Z,101845.55
2022-11-14T04:47:21.352Z,101846.98
2022-11-14T04:50:32.811Z,101836.35
2022-11-14T04:53:43.730Z,101850.09
2022-11-14T04:56:54.991Z,101851.66
2022-11-14T05:00:07.966Z,101854.05
2022-11-14T05:03:18.556Z,101868.66
2022-11-14T05:06:29.437Z,101864.81
2022-11-14T05:09:40.927Z,101867.31
2022-11-14T05:12:54.456Z,101865.29
2022-11-14T05:16:06.757Z,101873.77
2022-11-14T05:19:18.079Z,101870.06
2022-11-14T05:22:30.292Z,101868.15
2022-11-14T05:25:41.024Z,101871.36
2022-11-14T05:28:51.893Z,101866.80
2022-11-14T05:32:02.569Z,101871.83
2022-11-14T05:35:14.757Z,101880.34
2022-11-14T05:38:25.566Z,101881.88
2022-11-14T05:41:36.643Z,101881.52
2022-11-14T05:44:47.095Z,101889.17
2022-11-14T05:47:58.369Z,101887.36
2022-11-14T05:51:12.056Z,101885.19
2022-11-14T05:54:22.767Z,101885.91
2022-11-14T05:57:33.680Z,101893.45
2022-11-14T06:00:51.986Z,101897.63
2022-11-14T06:04:07.151Z,101891.14
2022-11-14T06:07:20.413Z,101897.98
2022-11-14T06:10:31.863Z,101890.67
2022-11-14T06:13:43.846Z,101895.70
2022-11-14T06:16:55.450Z,101893.63
2022-11-14T06:20:10.349Z,101890.87
2022-11-14T06:23:24.744Z,101898.28
2022-11-14T06:26:36.735Z,101892.76
2022-11-14T06:29:47.763Z,101893.33
2022-11-14T06:33:02.047Z,101892.25
2022-11-14T06:36:14.594Z,101904.94
2022-11-14T06:39:24.271Z,101895.09
2022-11-14T06:42:36.782Z,101897.33
2022-11-14T06:45:47.870Z,101897.08
2022-11-14T06:49:00.167Z,101900.16
2022-11-14T06:52:10.752Z,101907.71
2022-11-14T06:55:25.295Z,101902.03
2022-11-14T06:58:39.061Z,101898.31
2022-11-14T07:01:48.581Z,101904.87
2022-11-14T07:04:59.054Z,101895.02
2022-11-14T07:08:10.762Z,101905.23
2022-11-14T07:11:24.031Z,101901.37
2022-11-14T07:14:35.547Z,101895.41
2022-11-14T07:17:46.420Z,101896.83
2022-11-14T07:21:03.647Z,101902.44
2022-11-14T07:24:14.419Z,101900.09
2022-11-14T07:27:25.188Z,101901.38
2022-11-14T07:30:36.515Z,101902.53
2022-11-14T07:33:48.977Z,101896.98
2022-11-14T07:36:59.905Z,101882.97
2022-11-14T07:40:14.158Z,101895.64
2022-11-14T07:43:26.080Z,101890.80
2022-11-14T07:46:36.563Z,101891.77
2022-11-14T07:49:47.641Z,101880.81
2022-11-14T07:52:59.333Z,101883.62
2022-11-14T07:56:12.120Z,101885.56
2022-11-14T07:59:23.132Z,101889.33
2022-11-14T08:02:33.842Z,101891.30
2022-11-14T08:05:52.247Z,101891.58
2022-11-14T08:09:03.861Z,101889.08
2022-11-14T08:12:15.243Z,101881.28
2022-11-14T08:15:28.338Z,101883.78
2022-11-14T08:18:39.583Z,101883.80
2022-11-14T08:21:50.357Z,101876.68
2022-11-14T08:25:01.378Z,101870.66
2022-11-14T08:28:12.941Z,101880.40
2022-11-14T08:31:25.137Z,101880.27
2022-11-14T08:34:37.102Z,101879.53
2022-11-14T08:37:48.184Z,101878.67
2022-11-14T08:41:03.221Z,101876.30
2022-11-14T08:44:13.757Z,101872.09
2022-11-14T08:47:24.857Z,101872.03
2022-11-14T08:50:37.016Z,101858.06
2022-11-14T08:53:48.495Z,101859.86
2022-11-14T08:56:59.526Z,101865.95
2022-11-14T09:00:14.251Z,101863.39
2022-11-14T09:03:25.442Z,101867.94
2022-11-14T09:06:37.057Z,101861.21
2022-11-14T09:09:48.489Z,101852.66
2022-11-14T09:13:01.789Z,101852.74
2022-11-14T09:16:15.230Z,101852.27
2022-11-14T09:19:26.366Z,101850.00
2022-11-14T09:22:37.196Z,101856.84
2022-11-14T09:25:48.095Z,101842.28
2022-11-14T09:28:58.500Z,101829.53
2022-11-14T09:32:11.046Z,101832.73
2022-11-14T09:35:22.576Z,101825.28
2022-11-14T09:38:38.668Z,101830.96
2022-11-14T09:42:02.470Z,101824.36
2022-11-14T09:45:18.224Z,101815.95
2022-11-14T09:48:32.618Z,101816.46
2022-11-14T09:51:51.669Z,101816.69
2022-11-14T09:55:12.175Z,101810.08
2022-11-14T09:58:24.541Z,101802.63
2022-11-14T10:01:46.498Z,101799.66
2022-11-14T10:05:11.007Z,101796.69
2022-11-14T10:08:43.494Z,101789.77
2022-11-14T10:12:01.549Z,101794.77
2022-11-14T10:15:33.583Z,101784.67
2022-11-14T10:19:15.814Z,101774.41
2022-11-14T10:22:42.650Z,101769.59
2022-11-14T10:26:12.169Z,101772.61
2022-11-14T10:29:52.526Z,101772.29
2022-11-14T10:33:19.517Z,101771.83
2022-11-14T10:36:46.722Z,101768.67
2022-11-14T10:40:11.227Z,101759.39
2022-11-14T10:43:27.716Z,101754.61
2022-11-14T10:46:44.031Z,101755.10
2022-11-14T10:49:57.488Z,101755.63
2022-11-14T10:53:18.068Z,101753.47
2022-11-14T10:56:28.940Z,101746.16
2022-11-14T10:59:40.423Z,101738.05
2022-11-14T11:02:56.928Z,101738.86
2022-11-14T11:06:26.135Z,101740.70
2022-11-14T11:09:59.743Z,101738.05
2022-11-14T11:13:15.748Z,101739.86
2022-11-14T11:16:29.177Z,101741.52
2022-11-14T11:19:42.031Z,101739.70
2022-11-14T11:23:03.587Z,101730.74
2022-11-14T11:26:27.159Z,101729.89
2022-11-14T11:29:38.519Z,101721.92
2022-11-14T11:32:49.671Z,101729.75
2022-11-14T11:36:04.060Z,101719.94
2022-11-14T11:39:24.847Z,101725.25
2022-11-14T11:43:31.684Z,101726.77
2022-11-14T11:46:20.036Z,101719.48
2022-11-14T11:49:42.991Z,101713.18
2022-11-14T11:53:02.877Z,101720.16
2022-11-14T11:56:17.843Z,101713.84
2022-11-14T11:59:39.569Z,101705.20
2022-11-14T12:02:54.176Z,101708.68
2022-11-14T12:06:16.065Z,101704.36
2022-11-14T12:10:03.510Z,101703.66
2022-11-14T12:13:31.751Z,101691.22
2022-11-14T12:17:13.098Z,101691.92
2022-11-14T12:20:55.450Z,101694.58
2022-11-14T12:24:35.769Z,101690.92
2022-11-14T12:27:59.661Z,101691.07
2022-11-14T12:31:17.061Z,101684.09
2022-11-14T12:34:33.439Z,101684.94
2022-11-14T12:37:55.290Z,101683.09
2022-11-14T12:41:08.601Z,101681.73
2022-11-14T12:44:33.668Z,101683.58
2022-11-14T12:48:25.002Z,101688.22
2022-11-14T12:51:55.718Z,101682.06
2022-11-14T12:55:28.247Z,101694.67
2022-11-14T12:59:12.395Z,101687.03
2022-11-14T13:02:53.684Z,101681.89
2022-11-14T13:06:09.381Z,101686.36
2022-11-14T13:09:34.065Z,101685.55
2022-11-14T13:13:15.457Z,101670.75
2022-11-14T13:16:50.086Z,101684.36
2022-11-14T13:20:19.597Z,101682.02
2022-11-14T13:23:59.436Z,101681.20
2022-11-14T13:27:52.203Z,101667.41
2022-11-14T13:31:22.510Z,101676.55
2022-11-14T13:34:52.177Z,101675.20
2022-11-14T13:38:21.551Z,101676.20
2022-11-14T13:41:58.431Z,101670.22
2022-11-14T13:45:49.658Z,101667.03
2022-11-14T13:49:15.146Z,101661.05
2022-11-14T13:52:30.157Z,101658.58
2022-11-14T13:55:58.055Z,101664.03
2022-11-14T13:59:39.467Z,101659.72
2022-11-14T14:03:15.915Z,101659.05
2022-11-14T14:06:49.644Z,101668.84
2022-11-14T14:10:10.692Z,101662.87
2022-11-14T14:13:36.928Z,101664.67
2022-11-14T14:16:55.278Z,101655.89
2022-11-14T14:20:23.424Z,101653.56
2022-11-14T14:23:44.766Z,101650.91
2022-11-14T14:27:09.546Z,101645.73
2022-11-14T14:30:23.238Z,101650.23
2022-11-14T14:33:43.650Z,101642.41
2022-11-14T14:36:56.062Z,101643.73
2022-11-14T14:40:24.190Z,101642.06
2022-11-14T14:43:36.700Z,101647.70
2022-11-14T14:46:47.627Z,101648.02
2022-11-14T14:49:59.519Z,101643.03
2022-11-14T14:53:21.347Z,101642.36
2022-11-14T14:56:33.047Z,101639.87
2022-11-14T14:59:44.835Z,101640.87
2022-11-14T15:02:57.156Z,101633.05
2022-11-14T15:06:22.931Z,101632.38
2022-11-14T15:09:33.839Z,101633.37
2022-11-14T15:12:45.892Z,101631.70
2022-11-14T15:15:58.132Z,101630.22
2022-11-14T15:19:14.099Z,101634.00
2022-11-14T15:22:29.282Z,101635.84
2022-11-14T15:25:40.932Z,101634.33
2022-11-14T15:28:52.954Z,101634.33
2022-11-14T15:32:05.986Z,101630.18
2022-11-14T15:35:29.628Z,101634.81
2022-11-14T15:38:44.388Z,101632.30
2022-11-14T15:42:15.325Z,101641.25
2022-11-14T15:45:29.924Z,101635.45
2022-11-14T15:48:44.684Z,101640.08
2022-11-14T15:51:58.296Z,101636.58
2022-11-14T15:55:17.898Z,101639.55
2022-11-14T15:58:29.508Z,101633.74
2022-11-14T16:01:41.105Z,101635.55
2022-11-14T16:04:54.695Z,101631.41
2022-11-14T16:08:06.420Z,101629.06
2022-11-14T16:11:18.202Z,101632.70
2022-11-14T16:14:30.508Z,101629.52
2022-11-14T16:17:43.793Z,101629.84
2022-11-14T16:20:53.069Z,101634.47
2022-11-14T16:24:04.228Z,101637.60
2022-11-14T16:27:15.646Z,101636.93
2022-11-14T16:30:28.424Z,101635.27
2022-11-14T16:33:39.684Z,101631.09
2022-11-14T16:36:51.981Z,101627.93
2022-11-14T16:40:01.216Z,101628.24
2022-11-14T16:43:15.780Z,101625.05
2022-11-14T16:46:28.962Z,101629.68
2022-11-14T16:49:40.024Z,101633.32
2022-11-14T16:52:51.429Z,101634.31
2022-11-14T16:56:02.709Z,101637.13
2022-11-14T16:59:14.814Z,101637.27
2022-11-14T17:02:26.231Z,101635.60
2022-11-14T17:05:43.243Z,101637.58
2022-11-14T17:08:58.762Z,101635.91
2022-11-14T17:12:10.446Z,101638.73
2022-11-14T17:15:22.081Z,101630.10
2022-11-14T17:18:38.437Z,101630.23
2022-11-14T17:21:49.975Z,101637.37
2022-11-14T17:25:01.433Z,101633.20
2022-11-14T17:28:13.250Z,101623.89
2022-11-14T17:31:24.229Z,101628.38
2022-11-14T17:34:35.718Z,101626.03
2022-11-14T17:37:46.649Z,101630.48
2022-11-14T17:41:01.553Z,101630.48
2022-11-14T17:44:13.015Z,101623.52
2022-11-14T17:47:24.120Z,101614.89
2022-11-14T17:50:37.812Z,101624.67
2022-11-14T17:53:49.349Z,101622.16
2022-11-14T17:57:01.235Z,101620.50
2022-11-14T18:00:16.413Z,101620.50
2022-11-14T18:03:28.479Z,101622.33
2022-11-14T18:06:39.786Z,101618.02
2022-11-14T18:09:51.498Z,101615.37
2022-11-14T18:13:05.248Z,101615.50
2022-11-14T18:16:18.295Z,101617.34
2022-11-14T18:19:29.774Z,101607.55
2022-11-14T18:22:42.118Z,101615.50
2022-11-14T18:25:53.055Z,101605.89
2022-11-14T18:29:05.341Z,101606.87
2022-11-14T18:32:17.165Z,101606.06
2022-11-14T18:35:28.600Z,101601.58
2022-11-14T18:38:39.853Z,101599.91
2022-11-14T18:41:50.718Z,101606.20
2022-11-14T18:45:01.548Z,101606.20
2022-11-14T18:48:12.868Z,101607.16
2022-11-14T18:51:25.801Z,101602.70
2022-11-14T18:54:37.035Z,101608.00
2022-11-14T18:57:48.608Z,101611.36
2022-11-14T19:00:59.310Z,101607.05
2022-11-14T19:04:12.260Z,101610.51
2022-11-14T19:07:25.080Z,101613.16
2022-11-14T19:10:34.479Z,101614.14
2022-11-14T19:13:45.613Z,101610.78
2022-11-14T19:16:57.513Z,101616.94
2022-11-14T19:20:14.622Z,101616.09
2022-11-14T19:23:26.440Z,101603.69
2022-11-14T19:26:38.051Z,101612.62
2022-11-14T19:29:50.596Z,101603.00
2022-11-14T19:33:04.804Z,101601.34
2022-11-14T19:36:27.829Z,101606.64
2022-11-14T19:39:47.345Z,101610.11
2022-11-14T19:43:04.234Z,101609.29
2022-11-14T19:46:17.306Z,101613.73
2022-11-14T19:49:28.365Z,101605.80
2022-11-14T19:52:38.817Z,101605.80
2022-11-14T19:55:50.010Z,101609.29
2022-11-14T19:59:02.842Z,101611.09
2022-11-14T20:02:15.813Z,101607.63
2022-11-14T20:05:27.663Z,101607.45
2022-11-14T20:08:39.392Z,101611.94
2022-11-14T20:11:51.029Z,101614.59
2022-11-14T20:15:02.103Z,101614.73
2022-11-14T20:18:13.457Z,101605.80
2022-11-14T20:21:26.561Z,101605.80
2022-11-14T20:24:35.948Z,101598.83
2022-11-14T20:27:46.872Z,101601.48
2022-11-14T20:31:01.404Z,101598.83
2022-11-14T20:34:13.076Z,101597.16
2022-11-14T20:37:24.828Z,101594.52
2022-11-14T20:40:37.743Z,101584.91
2022-11-14T20:43:50.055Z,101596.34
2022-11-14T20:47:01.096Z,101587.55
2022-11-14T20:50:13.818Z,101586.73
2022-11-14T20:53:25.742Z,101571.14
2022-11-14T20:56:36.537Z,101572.64
2022-11-14T20:59:47.957Z,101569.98
2022-11-14T21:03:00.161Z,101576.14
2022-11-14T21:06:12.677Z,101574.47
2022-11-14T21:09:23.394Z,101565.84
2022-11-14T21:12:34.609Z,101567.65
2022-11-14T21:15:45.963Z,101571.96
2022-11-14T21:18:58.275Z,101573.63
2022-11-14T21:22:09.282Z,101572.95
2022-11-14T21:25:20.875Z,101573.63
2022-11-14T21:28:34.224Z,101570.30
2022-11-14T21:31:47.381Z,101572.13
2022-11-14T21:34:56.904Z,101569.48
2022-11-14T21:38:07.946Z,101568.80
2022-11-14T21:41:19.932Z,101565.30
2022-11-14T21:44:31.123Z,101557.36
2022-11-14T21:47:42.207Z,101566.29
2022-11-14T21:50:53.376Z,101560.99
2022-11-14T21:54:06.647Z,101561.84
2022-11-14T21:57:17.884Z,101555.69
2022-11-14T22:00:28.766Z,101549.58
2022-11-14T22:03:58.689Z,101548.73
2022-11-14T22:07:11.151Z,101543.44
2022-11-14T22:10:23.350Z,101548.73
2022-11-14T22:13:35.519Z,101546.25
2022-11-14T22:16:46.583Z,101545.41
2022-11-14T22:19:57.761Z,101537.45
2022-11-14T22:23:08.705Z,101533.99
2022-11-14T22:26:19.777Z,101530.36
2022-11-14T22:29:31.308Z,101522.55
2022-11-14T22:32:43.091Z,101521.73
2022-11-14T22:35:54.849Z,101511.27
2022-11-14T22:39:07.213Z,101507.81
2022-11-14T22:42:18.249Z,101505.98
2022-11-14T22:45:29.247Z,101500.68
2022-11-14T22:48:40.445Z,101499.86
2022-11-14T22:51:51.615Z,101496.38
2022-11-14T22:55:02.893Z,101493.72
2022-11-14T22:58:14.379Z,101491.92
2022-11-14T23:01:27.230Z,101488.42
2022-11-14T23:04:37.971Z,101485.77
2022-11-14T23:07:49.569Z,101488.59
2022-11-14T23:11:07.047Z,101478.98
2022-11-14T23:14:19.398Z,101482.62
2022-11-14T23:17:30.532Z,101483.44
2022-11-14T23:20:41.351Z,101473.15
2022-11-14T23:23:57.749Z,101478.45
2022-11-14T23:27:09.440Z,101479.44
2022-11-14T23:30:20.882Z,101469.69
2022-11-14T23:33:32.830Z,101469.83
2022-11-14T23:36:48.180Z,101466.36
2022-11-14T23:39:59.403Z,101462.86
2022-11-14T23:43:10.594Z,101463.85
2022-11-14T23:46:22.266Z,101458.55
2022-11-14T23:49:34.148Z,101451.45
2022-11-14T23:52:45.021Z,101454.10
2022-11-14T23:56:00.680Z,101454.25
2022-11-14T23:59:12.133Z,101456.89
